createdAt,value
2018-09-12T00:04:48.287Z,3.50
2018-09-12T00:09:51.686Z,3.53
2018-09-12T00:14:55.287Z,3.60
2018-09-12T00:19:58.642Z,3.53
2018-09-12T00:25:02.126Z,3.60
2018-09-12T00:30:05.552Z,3.57
2018-09-12T00:35:08.928Z,3.50
2018-09-12T00:40:12.521Z,3.50
2018-09-12T00:45:16.292Z,3.80
2018-09-12T00:50:19.917Z,3.60
2018-09-12T00:55:23.331Z,3.57
2018-09-12T01:00:27.411Z,3.53
2018-09-12T01:05:30.881Z,3.57
2018-09-12T01:10:34.252Z,3.17
2018-09-12T01:15:37.980Z,3.50
2018-09-12T01:20:41.994Z,3.53
2018-09-12T01:25:45.761Z,3.50
2018-09-12T01:30:49.210Z,3.33
2018-09-12T01:35:52.579Z,3.27
2018-09-12T01:40:56.116Z,3.63
2018-09-12T01:45:59.512Z,3.50
2018-09-12T01:51:03.631Z,3.67
2018-09-12T01:56:07.031Z,3.30
2018-09-12T02:01:10.481Z,3.20
2018-09-12T02:06:13.903Z,3.60
2018-09-12T02:11:17.283Z,3.47
2018-09-12T02:16:20.731Z,3.37
2018-09-12T02:21:24.093Z,3.50
2018-09-12T02:26:27.525Z,3.40
2018-09-12T02:31:30.952Z,3.30
2018-09-12T02:36:34.382Z,3.30
2018-09-12T02:41:37.752Z,3.50
2018-09-12T02:46:41.212Z,3.70
2018-09-12T02:51:44.728Z,3.50
2018-09-12T02:56:48.092Z,3.57
2018-09-12T03:01:51.456Z,3.33
2018-09-12T03:06:54.900Z,3.90
2018-09-12T03:11:58.317Z,3.43
2018-09-12T03:17:01.836Z,3.43
2018-09-12T03:22:05.370Z,3.77
2018-09-12T03:27:08.818Z,3.70
2018-09-12T03:32:12.230Z,3.90
2018-09-12T03:37:15.651Z,3.43
2018-09-12T03:42:19.102Z,3.73
2018-09-12T03:47:22.646Z,3.70
2018-09-12T03:52:26.879Z,4.00
2018-09-12T03:57:30.228Z,3.77
2018-09-12T04:02:33.698Z,3.90
2018-09-12T04:07:37.067Z,4.20
2018-09-12T04:12:40.459Z,4.10
2018-09-12T04:17:43.900Z,4.33
2018-09-12T04:22:47.421Z,4.10
2018-09-12T04:27:50.931Z,4.67
2018-09-12T04:32:54.316Z,4.27
2018-09-12T04:37:57.787Z,4.73
2018-09-12T04:43:01.158Z,4.40
2018-09-12T04:48:04.699Z,4.27
2018-09-12T04:53:08.102Z,4.00
2018-09-12T04:58:11.531Z,4.33
2018-09-12T05:03:14.890Z,4.47
2018-09-12T05:08:18.347Z,4.63
2018-09-12T05:13:21.727Z,4.70
2018-09-12T05:18:25.120Z,4.83
2018-09-12T05:23:28.515Z,4.00
2018-09-12T05:28:31.970Z,4.57
2018-09-12T05:33:35.343Z,4.47
2018-09-12T05:38:38.772Z,4.30
2018-09-12T05:43:42.156Z,4.97
2018-09-12T05:48:45.799Z,4.77
2018-09-12T05:53:49.244Z,4.40
2018-09-12T05:58:52.749Z,4.70
2018-09-12T06:03:56.149Z,4.63
2018-09-12T06:09:00.380Z,5.03
2018-09-12T06:14:03.931Z,4.57
2018-09-12T06:19:07.353Z,4.57
2018-09-12T06:24:11.644Z,4.30
2018-09-12T06:29:15.075Z,3.97
2018-09-12T06:34:18.447Z,4.17
2018-09-12T06:39:21.911Z,4.20
2018-09-12T06:44:25.350Z,4.50
2018-09-12T06:49:28.775Z,3.60
2018-09-12T06:54:32.153Z,3.73
2018-09-12T06:59:36.073Z,3.77
2018-09-12T07:04:39.541Z,3.53
2018-09-12T07:09:43.028Z,4.07
2018-09-12T07:14:46.440Z,3.80
2018-09-12T07:19:49.959Z,3.27
2018-09-12T07:24:53.306Z,3.87
2018-09-12T07:29:57.554Z,3.83
2018-09-12T07:35:01.023Z,3.80
2018-09-12T07:40:04.603Z,3.30
2018-09-12T07:45:08.028Z,3.87
2018-09-12T07:50:11.394Z,3.40
2018-09-12T07:55:14.864Z,3.73
2018-09-12T08:00:18.381Z,3.30
2018-09-12T08:05:21.749Z,3.80
2018-09-12T08:10:25.128Z,4.20
2018-09-12T08:15:29.284Z,3.43
2018-09-12T08:20:35.470Z,3.50
2018-09-12T08:25:38.875Z,3.58
2018-09-12T08:30:42.277Z,3.35
2018-09-12T08:35:45.707Z,3.72
2018-09-12T08:40:49.826Z,3.62
2018-09-12T08:45:53.700Z,3.15
2018-09-12T08:50:57.108Z,2.90
2018-09-12T08:56:01.267Z,3.08
2018-09-12T09:01:04.923Z,3.10
2018-09-12T09:06:08.710Z,2.77
2018-09-12T09:11:12.126Z,2.83
2018-09-12T09:16:16.337Z,3.02
2018-09-12T09:21:19.735Z,3.00
2018-09-12T09:26:23.747Z,3.20
2018-09-12T09:31:27.151Z,2.72
2018-09-12T09:36:30.528Z,2.65
2018-09-12T09:41:33.940Z,2.65
2018-09-12T09:46:37.964Z,2.55
2018-09-12T09:51:41.392Z,2.90
2018-09-12T09:56:44.762Z,2.87
2018-09-12T10:01:53.358Z,3.02
2018-09-12T10:06:59.485Z,2.70
2018-09-12T10:12:03.838Z,3.12
2018-09-12T10:17:07.354Z,2.75
2018-09-12T10:22:10.720Z,2.98
2018-09-12T10:27:14.157Z,2.70
2018-09-12T10:32:17.515Z,2.55
2018-09-12T10:37:20.896Z,2.80
2018-09-12T10:42:24.238Z,2.87
2018-09-12T10:47:27.731Z,2.52
2018-09-12T10:52:31.160Z,2.70
2018-09-12T10:57:34.589Z,2.60
2018-09-12T11:02:38.065Z,2.85
2018-09-12T11:07:41.520Z,2.27
2018-09-12T11:12:45.234Z,2.70
2018-09-12T11:17:48.694Z,2.52
2018-09-12T11:22:52.146Z,2.62
2018-09-12T11:27:55.565Z,2.77
2018-09-12T11:32:59.017Z,2.90
2018-09-12T11:38:02.438Z,2.60
2018-09-12T11:43:05.910Z,2.70
2018-09-12T11:48:09.340Z,2.33
2018-09-12T11:53:13.451Z,2.67
2018-09-12T11:58:16.902Z,2.77
2018-09-12T12:03:20.280Z,2.80
2018-09-12T12:08:23.682Z,2.70
2018-09-12T12:13:27.111Z,2.33
2018-09-12T12:18:30.446Z,2.85
2018-09-12T12:23:33.947Z,2.50
2018-09-12T12:28:37.441Z,2.35
2018-09-12T12:33:41.700Z,2.42
2018-09-12T12:38:45.061Z,2.58
2018-09-12T12:43:48.436Z,2.90
2018-09-12T12:48:51.834Z,2.53
2018-09-12T12:53:55.265Z,2.87
2018-09-12T12:58:58.761Z,2.60
2018-09-12T13:04:02.127Z,2.90
2018-09-12T13:09:07.851Z,2.70
2018-09-12T13:14:11.291Z,2.95
2018-09-12T13:19:14.646Z,3.33
2018-09-12T13:24:18.073Z,3.10
2018-09-12T13:29:21.533Z,2.90
2018-09-12T13:34:24.976Z,3.15
2018-09-12T13:39:28.446Z,2.70
2018-09-12T13:44:31.916Z,2.75
2018-09-12T13:49:35.241Z,2.70
2018-09-12T13:54:38.650Z,2.77
2018-09-12T13:59:42.032Z,2.83
2018-09-12T14:04:45.514Z,2.50
2018-09-12T14:09:48.879Z,2.90
2018-09-12T14:14:52.337Z,2.50
2018-09-12T14:19:55.690Z,2.67
2018-09-12T14:24:59.159Z,2.87
2018-09-12T14:30:02.579Z,2.70
2018-09-12T14:35:05.985Z,3.22
2018-09-12T14:40:09.616Z,2.50
2018-09-12T14:45:13.150Z,3.05
2018-09-12T14:50:16.638Z,2.95
2018-09-12T14:55:20.226Z,2.90
2018-09-12T15:00:29.189Z,2.83
2018-09-12T15:05:33.400Z,2.80
2018-09-12T15:10:36.921Z,2.52
2018-09-12T15:15:40.285Z,2.40
2018-09-12T15:20:43.708Z,2.70
2018-09-12T15:25:47.182Z,2.60
2018-09-12T15:30:50.571Z,2.98
2018-09-12T15:35:54.146Z,2.40
2018-09-12T15:40:57.592Z,2.62
2018-09-12T15:46:01.028Z,2.62
2018-09-12T15:51:04.398Z,2.80
2018-09-12T15:56:07.776Z,2.65
2018-09-12T16:01:11.180Z,2.60
2018-09-12T16:06:14.923Z,2.95
2018-09-12T16:11:18.352Z,2.95
2018-09-12T16:16:21.732Z,3.00
2018-09-12T16:21:25.102Z,2.70
2018-09-12T16:26:28.469Z,3.00
2018-09-12T16:31:31.854Z,2.83
2018-09-12T16:36:35.401Z,3.00
2018-09-12T16:41:39.535Z,2.95
2018-09-12T16:46:42.949Z,2.75
2018-09-12T16:51:46.401Z,2.80
2018-09-12T16:56:49.910Z,3.27
2018-09-12T17:01:53.275Z,2.95
2018-09-12T17:06:56.651Z,3.42
2018-09-12T17:12:00.062Z,2.70
2018-09-12T17:17:03.452Z,3.12
2018-09-12T17:22:07.517Z,3.30
2018-09-12T17:27:11.642Z,3.20
2018-09-12T17:32:15.040Z,3.87
2018-09-12T17:37:18.457Z,3.00
2018-09-12T17:42:22.843Z,3.77
2018-09-12T17:47:26.487Z,3.50
2018-09-12T17:52:29.899Z,3.52
2018-09-12T17:57:33.309Z,3.40
2018-09-12T18:02:36.683Z,3.67
2018-09-12T18:07:40.064Z,3.80
2018-09-12T18:12:44.300Z,4.47
2018-09-12T18:17:47.674Z,4.10
2018-09-12T18:22:51.155Z,4.35
2018-09-12T18:27:54.732Z,3.87
2018-09-12T18:32:58.241Z,4.40
2018-09-12T18:38:01.704Z,4.95
2018-09-12T18:43:05.420Z,5.28
2018-09-12T18:48:10.642Z,4.95
2018-09-12T18:53:14.135Z,5.10
2018-09-12T18:58:17.559Z,5.75
2018-09-12T19:03:20.956Z,4.50
2018-09-12T19:08:24.596Z,5.33
2018-09-12T19:13:28.900Z,4.65
2018-09-12T19:18:32.362Z,4.87
2018-09-12T19:23:35.898Z,3.80
2018-09-12T19:28:39.598Z,4.37
2018-09-12T19:33:43.382Z,4.10
2018-09-12T19:38:46.832Z,4.20
2018-09-12T19:43:50.427Z,4.78
2018-09-12T19:48:53.835Z,3.90
2018-09-12T19:53:57.203Z,3.60
2018-09-12T19:59:00.546Z,4.55
2018-09-12T20:04:04.068Z,4.40
2018-09-12T20:09:09.227Z,3.60
2018-09-12T20:19:23.907Z,3.10
2018-09-12T20:24:27.353Z,3.33
2018-09-12T20:29:30.731Z,3.30
2018-09-12T20:34:34.122Z,3.20
2018-09-12T20:39:37.587Z,3.30
2018-09-12T20:44:41.032Z,3.30
2018-09-12T20:49:44.418Z,4.20
2018-09-12T20:54:47.811Z,4.13
2018-09-12T20:59:51.273Z,5.83
2018-09-12T21:04:54.670Z,4.73
2018-09-12T21:09:58.022Z,4.50
2018-09-12T21:15:01.356Z,4.27
2018-09-12T21:20:04.723Z,4.57
2018-09-12T21:25:08.120Z,4.50
2018-09-12T21:30:11.523Z,4.40
2018-09-12T21:35:14.884Z,4.63
2018-09-12T21:40:18.262Z,4.80
2018-09-12T21:45:21.960Z,4.73
2018-09-12T21:50:25.490Z,4.63
2018-09-12T21:55:28.873Z,4.50
2018-09-12T22:00:32.417Z,4.50
2018-09-12T22:05:36.002Z,4.60
2018-09-12T22:10:39.576Z,4.73
2018-09-12T22:15:42.971Z,4.57
2018-09-12T22:20:46.359Z,5.17
2018-09-12T22:25:49.951Z,4.57
2018-09-12T22:30:53.468Z,4.23
2018-09-12T22:35:57.038Z,4.60
2018-09-12T22:41:00.398Z,4.97
2018-09-12T22:46:04.632Z,4.63
2018-09-12T22:51:07.999Z,5.27
2018-09-12T22:56:11.350Z,5.20
2018-09-12T23:01:14.755Z,5.13
2018-09-12T23:06:18.125Z,4.77
2018-09-12T23:11:21.529Z,5.27
2018-09-12T23:16:24.932Z,5.80
2018-09-12T23:21:28.434Z,5.40
2018-09-12T23:26:31.830Z,5.17
2018-09-12T23:31:35.295Z,5.97
2018-09-12T23:36:51.932Z,5.87
2018-09-12T23:41:55.331Z,5.90
2018-09-12T23:46:58.699Z,5.77
2018-09-12T23:52:02.128Z,6.27
2018-09-12T23:57:05.703Z,5.97
